Weather reports worldwide

Advertisment
Menorca Airport, Spain (2008314): temperature & dewpoint: 12.10.2017 07:00:00 - 18.10.2017 07:00:00 (CEST)Menorca Airport, Spain (2008314): wind speed: 12.10.2017 07:00:00 - 18.10.2017 07:00:00 (CEST)Menorca Airport, Spain (2008314): wind direction: 12.10.2017 07:00:00 - 18.10.2017 07:00:00 (CEST)Menorca Airport, Spain (2008314): visibility: 12.10.2017 07:00:00 - 18.10.2017 07:00:00 (CEST)
Date & Time tt [°C] td [°C] ff [km/h] ff [kn] dd vv [km]
18.10.2017 07:00:00 19,0 17,0 4 2 S 10
18.10.2017 06:00:00 19,0 17,0 4 2 - 10
18.10.2017 05:00:00 20,0 17,0 8 4 SSW 10
18.10.2017 04:00:00 21,0 17,0 9 5 SSW 10
18.10.2017 03:00:00 21,0 18,0 11 6 SSW 10
18.10.2017 02:00:00 21,0 18,0 11 6 S 10
18.10.2017 01:00:00 20,0 18,0 8 4 S 10
18.10.2017 00:00:00 20,0 17,0 8 4 S 10
17.10.2017 23:00:00 21,0 18,0 8 4 S 10
17.10.2017 22:00:00 20,0 18,0 5 3 SSE 10
17.10.2017 21:00:00 20,0 17,0 9 5 SE 10
17.10.2017 20:00:00 21,0 17,0 9 5 SE 10
17.10.2017 19:00:00 21,0 17,0 15 8 SE 10
17.10.2017 18:00:00 22,0 17,0 18 10 SE 10
17.10.2017 17:00:00 23,0 18,0 18 10 SE 10
17.10.2017 16:00:00 24,0 18,0 18 10 SSE 10
17.10.2017 15:00:00 24,0 17,0 21 11 S 10
17.10.2017 14:00:00 23,0 17,0 18 10 SE 10
17.10.2017 13:00:00 24,0 16,0 16 9 SE 10
17.10.2017 12:00:00 24,0 15,0 16 9 SE 10
17.10.2017 11:00:00 22,0 16,0 11 6 ESE 10
17.10.2017 10:00:00 21,0 16,0 11 6 ESE 10
17.10.2017 09:00:00 19,0 16,0 9 5 ESE 10
17.10.2017 08:00:00 18,0 15,0 5 3 E 10
17.10.2017 07:00:00 17,0 15,0 8 4 E 10
17.10.2017 06:00:00 18,0 15,0 5 3 E 10
17.10.2017 05:00:00 18,0 16,0 5 3 ESE 10
17.10.2017 04:00:00 18,0 16,0 8 4 ESE 10
17.10.2017 03:00:00 19,0 16,0 5 3 E 10
17.10.2017 02:00:00 19,0 16,0 5 3 E 10
17.10.2017 01:00:00 18,0 15,0 8 4 E 10
17.10.2017 00:00:00 18,0 15,0 8 4 E 10
16.10.2017 23:00:00 19,0 15,0 5 3 ESE 10
16.10.2017 22:00:00 19,0 15,0 5 3 ESE 10
16.10.2017 21:00:00 19,0 15,0 8 4 ESE 10
16.10.2017 20:00:00 20,0 15,0 8 4 E 10
16.10.2017 19:00:00 21,0 15,0 13 7 E 10
16.10.2017 18:00:00 22,0 16,0 15 8 ESE 10
16.10.2017 17:00:00 22,0 16,0 15 8 E 10
16.10.2017 16:00:00 22,0 16,0 16 9 ESE 10
16.10.2017 15:00:00 23,0 16,0 21 11 SE 10
16.10.2017 14:00:00 23,0 16,0 15 8 ESE 10
16.10.2017 13:00:00 23,0 16,0 15 8 SE 10
16.10.2017 12:00:00 23,0 15,0 16 9 SE 10
16.10.2017 11:00:00 23,0 15,0 16 9 ESE 10
16.10.2017 10:00:00 22,0 14,0 16 9 ESE 10
16.10.2017 09:00:00 19,0 15,0 5 3 E 10
16.10.2017 08:00:00 18,0 15,0 5 3 E 10
16.10.2017 07:00:00 19,0 15,0 2 1 E 10
16.10.2017 06:00:00 19,0 15,0 4 2 E 10
16.10.2017 05:00:00 18,0 15,0 2 1 - 10
16.10.2017 04:00:00 18,0 14,0 8 4 ESE 10
16.10.2017 03:00:00 18,0 15,0 8 4 ESE 10
16.10.2017 02:00:00 18,0 14,0 8 4 ESE 10
16.10.2017 01:00:00 18,0 14,0 5 3 ESE 10
16.10.2017 00:00:00 18,0 14,0 8 4 ESE 10
15.10.2017 23:00:00 19,0 14,0 8 4 E 10
15.10.2017 22:00:00 19,0 15,0 5 3 E 10
15.10.2017 21:00:00 20,0 15,0 5 3 E 10
15.10.2017 20:00:00 20,0 15,0 4 2 ESE 10
15.10.2017 19:00:00 21,0 16,0 8 4 - 10
15.10.2017 18:00:00 22,0 15,0 15 8 SE 10
15.10.2017 17:00:00 23,0 16,0 9 5 ESE 10
15.10.2017 16:00:00 22,0 15,0 15 8 E 10
15.10.2017 15:00:00 23,0 16,0 15 8 SE 10
15.10.2017 14:00:00 23,0 15,0 13 7 ESE 10
15.10.2017 13:00:00 23,0 15,0 16 9 SE 10
15.10.2017 12:00:00 22,0 15,0 16 9 SE 10
15.10.2017 11:00:00 22,0 15,0 15 8 ESE 10
15.10.2017 10:00:00 21,0 15,0 11 6 ESE 10
15.10.2017 09:00:00 19,0 15,0 4 2 ESE 10
15.10.2017 08:00:00 18,0 15,0 5 3 ESE 10
15.10.2017 07:00:00 18,0 15,0 5 3 ESE 10
15.10.2017 06:00:00 19,0 15,0 8 4 ESE 10
15.10.2017 05:00:00 18,0 15,0 8 4 ESE 10
15.10.2017 04:00:00 18,0 15,0 8 4 SE 10
15.10.2017 03:00:00 19,0 16,0 9 5 ESE 10
15.10.2017 02:00:00 19,0 16,0 8 4 E 10
15.10.2017 01:00:00 18,0 16,0 8 4 E 10
15.10.2017 00:00:00 18,0 16,0 8 4 ESE 10
14.10.2017 23:00:00 19,0 16,0 8 4 ESE 10
14.10.2017 22:00:00 19,0 16,0 5 3 E 10
14.10.2017 21:00:00 20,0 16,0 5 3 E 10
14.10.2017 20:00:00 20,0 16,0 5 3 ESE 10
14.10.2017 19:00:00 22,0 17,0 8 4 ESE 10
14.10.2017 18:00:00 23,0 16,0 9 5 ESE 10
14.10.2017 17:00:00 23,0 17,0 13 7 SSE 10
14.10.2017 16:00:00 24,0 17,0 11 6 SE 10
14.10.2017 15:00:00 24,0 16,0 13 7 SSE 10
14.10.2017 14:00:00 24,0 16,0 15 8 S 10
14.10.2017 13:00:00 24,0 16,0 13 7 SSE 10
14.10.2017 12:00:00 23,0 16,0 11 6 SSE 10
14.10.2017 11:00:00 22,0 15,0 13 7 SE 10
14.10.2017 10:00:00 22,0 17,0 5 3 SE 10
14.10.2017 09:00:00 19,0 16,0 8 4 SE 10
14.10.2017 08:00:00 18,0 16,0 8 4 SE 10
14.10.2017 07:00:00 18,0 16,0 5 3 ESE 10
14.10.2017 06:00:00 18,0 16,0 5 3 SSE 10
14.10.2017 05:00:00 18,0 16,0 5 3 SSE 10
14.10.2017 04:00:00 18,0 16,0 4 2 SSE 10
14.10.2017 03:00:00 19,0 17,0 4 2 S 10
14.10.2017 02:00:00 19,0 17,0 5 3 SSE 10
14.10.2017 01:00:00 19,0 17,0 5 3 SSE 10
14.10.2017 00:00:00 19,0 17,0 5 3 SSE 10
13.10.2017 23:00:00 19,0 16,0 4 2 S 10
13.10.2017 22:00:00 20,0 16,0 5 3 SSE 10
13.10.2017 21:00:00 20,0 17,0 5 3 S 10
13.10.2017 20:00:00 20,0 17,0 8 4 S 10
13.10.2017 19:00:00 21,0 16,0 5 3 SSW 10
13.10.2017 18:00:00 22,0 17,0 11 6 SSW 10
13.10.2017 17:00:00 23,0 17,0 13 7 SSW 10
13.10.2017 16:00:00 23,0 17,0 13 7 S 10
13.10.2017 15:00:00 23,0 17,0 13 7 SW 10
13.10.2017 14:00:00 24,0 17,0 13 7 SSW 10
13.10.2017 13:00:00 23,0 17,0 9 5 SSW 10
13.10.2017 12:00:00 23,0 17,0 9 5 WSW 10
13.10.2017 11:00:00 23,0 16,0 11 6 SW 10
13.10.2017 10:00:00 21,0 17,0 8 4 WSW 10
13.10.2017 09:00:00 20,0 17,0 9 5 SW 10
13.10.2017 08:00:00 19,0 16,0 2 1 - 10
13.10.2017 07:00:00 19,0 17,0 5 3 SW 10
13.10.2017 06:00:00 19,0 17,0 5 3 SW 10
13.10.2017 05:00:00 19,0 17,0 8 4 SW 10
13.10.2017 04:00:00 19,0 17,0 8 4 SW 10
13.10.2017 03:00:00 19,0 17,0 5 3 WSW 10
13.10.2017 02:00:00 19,0 17,0 5 3 WSW 10
13.10.2017 01:00:00 20,0 17,0 5 3 SW 10
13.10.2017 00:00:00 21,0 18,0 8 4 SW 10
12.10.2017 23:00:00 20,0 17,0 8 4 SW 10
12.10.2017 22:00:00 20,0 17,0 5 3 SSW 10
12.10.2017 21:00:00 20,0 17,0 4 2 SSW 10
12.10.2017 20:00:00 20,0 17,0 8 4 SW 10
12.10.2017 19:00:00 21,0 17,0 8 4 SW 10
12.10.2017 18:00:00 23,0 17,0 11 6 SW 10
12.10.2017 17:00:00 23,0 17,0 13 7 WSW 10
12.10.2017 16:00:00 24,0 17,0 13 7 WSW 10
12.10.2017 15:00:00 24,0 17,0 15 8 SW 10
12.10.2017 14:00:00 23,0 16,0 11 6 WSW 10
12.10.2017 13:00:00 24,0 16,0 11 6 SW 10
12.10.2017 12:00:00 23,0 17,0 11 6 SW 10
12.10.2017 11:00:00 22,0 16,0 4 2 - 10
12.10.2017 10:00:00 21,0 17,0 0 0 N 10
12.10.2017 09:00:00 18,0 16,0 2 1 N 10
12.10.2017 08:00:00 15,0 14,0 0 0 N 10
12.10.2017 07:00:00 16,0 15,0 0 0 N 10

tt = temperature
td = dewpoint
ff = wind speed
dd = wind direction
vv = visibility

Next stations